createdAt,value
2019-02-11T00:01:18.202Z,0.80
2019-02-11T00:03:47.572Z,1.13
2019-02-11T00:06:17.855Z,0.90
2019-02-11T00:08:48.377Z,0.90
2019-02-11T00:11:18.626Z,0.90
2019-02-11T00:13:48.015Z,1.85
2019-02-11T00:16:20.277Z,0.93
2019-02-11T00:18:49.797Z,1.00
2019-02-11T00:21:19.236Z,1.10
2019-02-11T00:23:48.691Z,0.93
2019-02-11T00:26:18.073Z,5.17
2019-02-11T00:28:47.441Z,0.90
2019-02-11T00:31:17.642Z,1.73
2019-02-11T00:33:48.233Z,1.12
2019-02-11T00:36:18.882Z,0.90
2019-02-11T00:38:48.807Z,1.00
2019-02-11T00:41:18.178Z,1.12
2019-02-11T00:43:47.549Z,2.07
2019-02-11T00:46:18.412Z,1.15
2019-02-11T00:48:48.280Z,1.10
2019-02-11T00:51:17.994Z,1.10
2019-02-11T00:53:47.791Z,1.80
2019-02-11T00:56:19.250Z,0.93
2019-02-11T00:58:48.630Z,0.87
2019-02-11T01:01:22.304Z,0.90
2019-02-11T01:03:53.869Z,1.23
2019-02-11T01:06:23.221Z,0.80
2019-02-11T01:08:53.994Z,1.07
2019-02-11T01:11:23.942Z,1.70
2019-02-11T01:13:54.512Z,1.13
2019-02-11T01:16:24.536Z,1.00
2019-02-11T01:18:54.184Z,4.47
2019-02-11T01:21:23.563Z,1.00
2019-02-11T01:23:52.984Z,0.98
2019-02-11T01:26:22.724Z,2.05
2019-02-11T01:28:52.100Z,1.10
2019-02-11T01:31:21.520Z,1.17
2019-02-11T01:33:50.930Z,1.00
2019-02-11T01:36:20.969Z,4.13
2019-02-11T01:38:50.327Z,1.53
2019-02-11T01:41:19.697Z,1.30
2019-02-11T01:43:49.422Z,1.10
2019-02-11T01:46:18.840Z,0.90
2019-02-11T01:48:50.756Z,1.80
2019-02-11T01:51:20.284Z,0.90
2019-02-11T01:53:51.936Z,1.27
2019-02-11T01:56:24.489Z,1.85
2019-02-11T01:58:53.844Z,1.73
2019-02-11T02:01:23.277Z,1.00
2019-02-11T02:03:53.493Z,1.60
2019-02-11T02:06:22.860Z,1.10
2019-02-11T02:08:53.038Z,1.87
2019-02-11T02:11:22.417Z,1.73
2019-02-11T02:13:55.174Z,1.83
2019-02-11T02:16:28.929Z,1.23
2019-02-11T02:18:58.281Z,0.90
2019-02-11T02:21:27.751Z,0.90
2019-02-11T02:23:57.765Z,1.52
2019-02-11T02:26:27.877Z,1.20
2019-02-11T02:28:57.357Z,3.40
2019-02-11T02:31:26.781Z,0.90
2019-02-11T02:33:56.187Z,0.90
2019-02-11T02:36:25.556Z,1.33
2019-02-11T02:38:57.820Z,1.10
2019-02-11T02:41:30.170Z,1.63
2019-02-11T02:44:00.046Z,1.10
2019-02-11T02:46:32.768Z,0.90
2019-02-11T02:49:03.346Z,1.37
2019-02-11T02:51:32.714Z,1.37
2019-02-11T02:54:02.232Z,0.98
2019-02-11T02:56:31.960Z,3.17
2019-02-11T02:59:01.448Z,1.20
2019-02-11T03:01:32.729Z,1.40
2019-02-11T03:04:02.080Z,1.20
2019-02-11T03:06:35.240Z,1.10
2019-02-11T03:09:08.398Z,1.37
2019-02-11T03:11:37.749Z,6.67
2019-02-11T03:14:07.137Z,0.93
2019-02-11T03:16:36.536Z,1.20
2019-02-11T03:19:09.926Z,1.17
2019-02-11T03:21:39.454Z,1.40
2019-02-11T03:24:09.027Z,1.10
2019-02-11T03:26:38.396Z,1.30
2019-02-11T03:29:07.760Z,1.40
2019-02-11T03:31:37.203Z,1.23
2019-02-11T03:34:06.577Z,1.60
2019-02-11T03:36:37.206Z,1.30
2019-02-11T03:39:08.307Z,1.60
2019-02-11T03:41:37.681Z,1.50
2019-02-11T03:44:14.814Z,1.40
2019-02-11T03:46:38.445Z,1.55
2019-02-11T03:49:09.321Z,1.70
2019-02-11T03:51:38.658Z,1.73
2019-02-11T03:54:08.061Z,2.87
2019-02-11T03:56:37.453Z,2.00
2019-02-11T03:59:06.839Z,1.70
2019-02-11T04:01:36.264Z,1.73
2019-02-11T04:04:09.291Z,1.83
2019-02-11T04:06:38.672Z,1.80
2019-02-11T04:09:10.300Z,3.43
2019-02-11T04:11:39.680Z,1.90
2019-02-11T04:14:10.962Z,2.20
2019-02-11T04:16:42.411Z,2.30
2019-02-11T04:19:11.800Z,2.67
2019-02-11T04:21:41.215Z,2.07
2019-02-11T04:24:10.663Z,2.10
2019-02-11T04:26:42.025Z,3.65
2019-02-11T04:29:12.237Z,4.50
2019-02-11T04:31:44.952Z,2.70
2019-02-11T04:34:15.300Z,2.30
2019-02-11T04:36:44.677Z,3.23
2019-02-11T04:39:14.095Z,2.60
2019-02-11T04:41:46.250Z,1.87
2019-02-11T04:44:20.462Z,2.12
2019-02-11T04:46:50.434Z,3.23
2019-02-11T04:49:21.445Z,2.47
2019-02-11T04:51:50.782Z,2.33
2019-02-11T04:54:21.709Z,1.65
2019-02-11T04:56:51.440Z,2.45
2019-02-11T04:59:25.160Z,2.03
2019-02-11T05:01:54.827Z,3.40
2019-02-11T05:04:24.227Z,2.37
2019-02-11T05:06:55.431Z,3.83
2019-02-11T05:09:26.431Z,2.40
2019-02-11T05:11:55.876Z,2.50
2019-02-11T05:14:25.265Z,2.70
2019-02-11T05:16:54.665Z,2.23
2019-02-11T05:19:26.882Z,3.10
2019-02-11T05:21:56.308Z,3.87
2019-02-11T05:24:28.814Z,3.10
2019-02-11T05:26:58.292Z,3.20
2019-02-11T05:29:27.697Z,2.87
2019-02-11T05:31:57.819Z,2.90
2019-02-11T05:34:32.617Z,3.07
2019-02-11T05:37:05.433Z,3.33
2019-02-11T05:39:39.443Z,3.47
2019-02-11T05:42:09.862Z,3.20
2019-02-11T05:44:40.921Z,2.90
2019-02-11T05:47:11.377Z,4.37
2019-02-11T05:49:40.720Z,3.83
2019-02-11T05:52:11.790Z,4.25
2019-02-11T05:54:42.401Z,3.10
2019-02-11T05:57:11.730Z,3.83
2019-02-11T05:59:41.130Z,3.72
2019-02-11T06:02:11.859Z,3.90
2019-02-11T06:04:41.789Z,10.50
2019-02-11T06:07:11.579Z,4.17
2019-02-11T06:09:40.933Z,4.20
2019-02-11T06:12:10.300Z,7.07
2019-02-11T06:14:40.525Z,4.80
2019-02-11T06:17:11.301Z,5.23
2019-02-11T06:19:40.594Z,7.60
2019-02-11T06:22:10.009Z,7.90
2019-02-11T06:24:39.420Z,5.93
2019-02-11T06:27:10.515Z,7.70
2019-02-11T06:29:39.864Z,4.47
2019-02-11T06:32:11.963Z,6.13
2019-02-11T06:34:41.913Z,8.57
2019-02-11T06:37:11.921Z,7.77
2019-02-11T06:39:41.917Z,5.63
2019-02-11T06:42:16.238Z,5.47
2019-02-11T06:44:45.600Z,4.50
2019-02-11T06:47:15.345Z,6.08
2019-02-11T06:49:44.772Z,7.33
2019-02-11T06:52:16.011Z,5.43
2019-02-11T06:54:45.899Z,7.77
2019-02-11T06:57:16.260Z,5.47
2019-02-11T06:59:51.319Z,5.90
2019-02-11T07:02:20.710Z,6.70
2019-02-11T07:04:50.088Z,8.15
2019-02-11T07:07:19.849Z,7.33
2019-02-11T07:09:49.885Z,8.30
2019-02-11T07:12:21.060Z,5.50
2019-02-11T07:14:50.623Z,6.57
2019-02-11T07:17:20.032Z,5.80
2019-02-11T07:19:50.553Z,7.57
2019-02-11T07:22:20.730Z,6.10
2019-02-11T07:24:51.504Z,5.23
2019-02-11T07:27:21.532Z,6.93
2019-02-11T07:29:50.861Z,8.00
2019-02-11T07:32:24.811Z,6.63
2019-02-11T07:34:57.410Z,5.80
2019-02-11T07:37:27.413Z,5.67
2019-02-11T07:39:57.224Z,5.77
2019-02-11T07:42:44.140Z,6.27
2019-02-11T07:45:39.234Z,5.53
2019-02-11T07:48:08.609Z,6.10
2019-02-11T07:50:37.997Z,4.67
2019-02-11T07:53:07.408Z,7.10
2019-02-11T07:55:36.788Z,5.07
2019-02-11T07:58:07.369Z,5.72
2019-02-11T08:00:37.210Z,6.60
2019-02-11T08:03:06.762Z,7.20
2019-02-11T08:05:39.370Z,5.92
2019-02-11T08:08:09.470Z,6.33
2019-02-11T08:10:38.766Z,5.97
2019-02-11T08:13:08.736Z,5.70
2019-02-11T08:15:43.690Z,6.40
2019-02-11T08:18:13.101Z,6.15
2019-02-11T08:20:44.949Z,6.53
2019-02-11T08:23:19.532Z,6.10
2019-02-11T08:25:48.936Z,7.03
2019-02-11T08:28:19.829Z,7.40
2019-02-11T08:30:51.382Z,7.03
2019-02-11T08:33:21.058Z,8.07
2019-02-11T08:35:52.824Z,10.17
2019-02-11T08:38:22.254Z,9.20
2019-02-11T08:40:55.007Z,9.13
2019-02-11T08:43:25.652Z,9.43
2019-02-11T08:45:55.100Z,6.00
2019-02-11T08:48:25.532Z,6.73
2019-02-11T08:50:54.853Z,8.60
2019-02-11T08:53:29.664Z,5.40
2019-02-11T08:56:04.612Z,7.60
2019-02-11T08:58:36.012Z,9.40
2019-02-11T09:01:06.053Z,9.10
2019-02-11T09:03:35.428Z,6.87
2019-02-11T09:06:05.032Z,6.93
2019-02-11T09:08:34.467Z,7.95
2019-02-11T09:11:04.205Z,7.10
2019-02-11T09:13:35.254Z,6.93
2019-02-11T09:16:05.351Z,8.33
2019-02-11T09:18:34.725Z,6.37
2019-02-11T09:21:04.466Z,8.03
2019-02-11T09:23:34.119Z,7.27
2019-02-11T09:26:04.642Z,6.97
2019-02-11T09:28:34.025Z,7.00
2019-02-11T09:31:04.293Z,6.73
2019-02-11T09:33:33.873Z,6.70
2019-02-11T09:36:08.442Z,6.70
2019-02-11T09:38:39.441Z,7.07
2019-02-11T09:41:08.877Z,7.50
2019-02-11T09:43:39.679Z,9.97
2019-02-11T09:46:09.249Z,8.30
2019-02-11T09:48:39.133Z,7.10
2019-02-11T09:51:09.889Z,7.27
2019-02-11T09:53:42.104Z,6.63
2019-02-11T09:56:11.444Z,7.07
2019-02-11T09:58:40.854Z,8.77
2019-02-11T10:01:14.681Z,6.70
2019-02-11T10:03:44.376Z,5.80
2019-02-11T10:06:15.261Z,9.83
2019-02-11T10:08:45.252Z,12.73
2019-02-11T10:11:17.580Z,7.00
2019-02-11T10:13:47.344Z,8.33
2019-02-11T10:16:18.963Z,6.95
2019-02-11T10:18:48.428Z,7.00
2019-02-11T10:21:18.160Z,9.33
2019-02-11T10:23:48.146Z,7.90
2019-02-11T10:26:18.316Z,7.45
2019-02-11T10:28:51.724Z,8.37
2019-02-11T10:31:21.423Z,10.70
2019-02-11T10:33:51.109Z,9.87
2019-02-11T10:36:25.708Z,8.23
2019-02-11T10:38:56.876Z,8.63
2019-02-11T10:41:27.596Z,8.57
2019-02-11T10:43:59.371Z,6.93
2019-02-11T10:46:31.357Z,8.67
2019-02-11T10:49:01.357Z,9.43
2019-02-11T10:51:32.797Z,12.43
2019-02-11T10:54:02.631Z,9.07
2019-02-11T10:56:38.285Z,8.00
2019-02-11T10:59:08.907Z,8.37
2019-02-11T11:01:38.596Z,15.73
2019-02-11T11:04:11.864Z,7.50
2019-02-11T11:06:42.543Z,10.47
2019-02-11T11:09:16.870Z,10.00
2019-02-11T11:11:46.328Z,11.47
2019-02-11T11:14:16.553Z,11.93
2019-02-11T11:16:46.016Z,11.33
2019-02-11T11:19:16.572Z,11.97
2019-02-11T11:21:46.445Z,9.03
2019-02-11T11:24:17.241Z,8.55
2019-02-11T11:26:46.846Z,10.70
2019-02-11T11:29:20.468Z,15.23
2019-02-11T11:31:51.021Z,11.40
2019-02-11T11:34:24.129Z,14.57
2019-02-11T11:36:53.465Z,10.73
2019-02-11T11:39:25.510Z,12.87
2019-02-11T11:41:55.508Z,9.80
2019-02-11T11:44:24.968Z,9.90
2019-02-11T11:46:54.807Z,11.00
2019-02-11T11:49:24.224Z,10.70
2019-02-11T11:51:53.863Z,10.27
2019-02-11T11:54:23.392Z,9.20
2019-02-11T11:56:53.902Z,10.53
2019-02-11T11:59:23.522Z,9.95
2019-02-11T12:01:53.159Z,7.90
2019-02-11T12:04:22.643Z,9.90
2019-02-11T12:06:52.225Z,8.80
2019-02-11T12:09:23.873Z,9.93
2019-02-11T12:11:53.443Z,7.33
2019-02-11T12:14:22.825Z,7.80
2019-02-11T12:16:56.821Z,11.00
2019-02-11T12:19:23.451Z,11.08
2019-02-11T12:21:53.215Z,9.20
2019-02-11T12:24:26.750Z,10.80
2019-02-11T12:26:56.203Z,10.60
2019-02-11T12:29:25.638Z,7.50
2019-02-11T12:31:55.028Z,10.90
2019-02-11T12:34:24.858Z,11.60
2019-02-11T12:36:54.969Z,7.43
2019-02-11T12:39:24.657Z,11.03
2019-02-11T12:41:55.715Z,9.20
2019-02-11T12:44:26.566Z,10.10
2019-02-11T12:47:12.764Z,9.53
2019-02-11T12:49:29.307Z,8.40
2019-02-11T12:51:58.776Z,8.97
2019-02-11T12:54:32.521Z,11.50
2019-02-11T12:57:03.595Z,9.50
2019-02-11T12:59:39.083Z,8.50
2019-02-11T13:02:10.565Z,12.53
2019-02-11T13:04:39.934Z,14.23
2019-02-11T13:07:09.413Z,17.20
2019-02-11T13:09:42.261Z,9.33
2019-02-11T13:12:11.659Z,12.03
2019-02-11T13:14:41.474Z,11.18
2019-02-11T13:17:18.267Z,12.03
2019-02-11T13:19:43.686Z,8.83
2019-02-11T13:22:13.290Z,9.43
2019-02-11T13:24:43.168Z,11.20
2019-02-11T13:27:13.655Z,7.60
2019-02-11T13:29:43.127Z,14.73
2019-02-11T13:32:12.553Z,8.30
2019-02-11T13:34:47.430Z,10.90
2019-02-11T13:37:19.805Z,8.73
2019-02-11T13:39:50.472Z,8.53
2019-02-11T13:42:22.570Z,9.43
2019-02-11T13:44:52.174Z,6.57
2019-02-11T13:47:21.819Z,10.30
2019-02-11T13:49:53.948Z,13.03
2019-02-11T13:52:23.778Z,6.23
2019-02-11T13:54:53.345Z,7.75
2019-02-11T13:57:22.920Z,16.27
2019-02-11T13:59:52.698Z,10.40
2019-02-11T14:02:22.318Z,6.67
2019-02-11T14:04:52.254Z,6.50
2019-02-11T14:07:22.507Z,9.45
2019-02-11T14:09:52.836Z,17.20
2019-02-11T14:12:22.243Z,12.23
2019-02-11T14:14:51.638Z,12.33
2019-02-11T14:17:21.655Z,5.37
2019-02-11T14:19:51.320Z,7.05
2019-02-11T14:22:21.139Z,9.63
2019-02-11T14:24:51.194Z,6.70
2019-02-11T14:27:20.596Z,7.83
2019-02-11T14:29:51.833Z,14.10
2019-02-11T14:32:21.225Z,7.67
2019-02-11T14:34:50.603Z,8.10
2019-02-11T14:37:23.705Z,38.17
2019-02-11T14:39:56.397Z,9.10
2019-02-11T14:42:25.846Z,8.40
2019-02-11T14:44:56.475Z,7.80
2019-02-11T14:47:25.879Z,9.60
2019-02-11T14:49:55.283Z,4.37
2019-02-11T14:52:25.435Z,7.30
2019-02-11T14:54:54.845Z,8.50
2019-02-11T14:57:26.138Z,5.70
2019-02-11T14:59:55.505Z,5.27
2019-02-11T15:02:25.513Z,17.40
2019-02-11T15:04:54.890Z,11.40
2019-02-11T15:07:24.403Z,7.92
2019-02-11T15:09:53.788Z,7.03
2019-02-11T15:12:23.158Z,10.80
2019-02-11T15:14:52.521Z,6.37
2019-02-11T15:17:21.924Z,4.50
2019-02-11T15:19:51.353Z,6.80
2019-02-11T15:22:20.794Z,5.33
2019-02-11T15:24:50.248Z,8.40
2019-02-11T15:27:19.625Z,6.30
2019-02-11T15:29:49.032Z,10.47
2019-02-11T15:32:19.096Z,12.07
2019-02-11T15:34:48.477Z,8.53
2019-02-11T15:37:18.486Z,8.17
2019-02-11T15:39:48.248Z,8.33
2019-02-11T15:42:18.218Z,8.90
2019-02-11T15:44:47.578Z,7.60
2019-02-11T15:47:18.831Z,6.87
2019-02-11T15:49:48.416Z,5.33
2019-02-11T15:52:18.025Z,6.73
2019-02-11T15:54:47.432Z,7.40
2019-02-11T15:57:18.048Z,4.95
2019-02-11T15:59:48.891Z,5.30
2019-02-11T16:02:19.224Z,4.90
2019-02-11T16:04:48.584Z,5.57
2019-02-11T16:07:17.976Z,7.37
2019-02-11T16:09:47.554Z,4.63
2019-02-11T16:12:18.029Z,4.30
2019-02-11T16:14:47.412Z,7.17
2019-02-11T16:17:17.369Z,8.50
2019-02-11T16:19:48.433Z,7.30
2019-02-11T16:22:18.830Z,4.40
2019-02-11T16:24:48.753Z,5.17
2019-02-11T16:27:18.142Z,4.83
2019-02-11T16:29:47.531Z,4.20
2019-02-11T16:32:18.109Z,4.90
2019-02-11T16:34:47.766Z,5.73
2019-02-11T16:37:18.063Z,4.60
2019-02-11T16:39:47.851Z,6.37
2019-02-11T16:42:18.009Z,5.50
2019-02-11T16:44:47.387Z,5.27
2019-02-11T16:47:20.475Z,9.00
2019-02-11T16:49:50.085Z,8.63
2019-02-11T16:52:19.456Z,6.70
2019-02-11T16:54:48.876Z,6.57
2019-02-11T16:57:18.803Z,9.37
2019-02-11T16:59:48.242Z,7.10
2019-02-11T17:02:18.109Z,7.87
2019-02-11T17:04:51.397Z,4.83
2019-02-11T17:07:21.930Z,12.03
2019-02-11T17:09:51.479Z,5.40
2019-02-11T17:12:20.852Z,6.60
2019-02-11T17:14:50.366Z,7.20
2019-02-11T17:17:19.817Z,5.63
2019-02-11T17:19:49.189Z,7.30
2019-02-11T17:22:18.601Z,10.23
2019-02-11T17:24:48.013Z,6.00
2019-02-11T17:27:18.084Z,5.80
2019-02-11T17:29:48.190Z,6.53
2019-02-11T17:32:18.155Z,8.13
2019-02-11T17:34:47.532Z,7.13
2019-02-11T17:37:17.250Z,11.30
2019-02-11T17:39:46.697Z,4.20
2019-02-11T17:42:16.255Z,4.00
2019-02-11T17:44:46.092Z,12.57
2019-02-11T17:47:16.495Z,10.23
2019-02-11T17:49:45.842Z,7.70
2019-02-11T17:52:15.670Z,12.43
2019-02-11T17:54:46.125Z,9.68
2019-02-11T17:57:16.192Z,8.53
2019-02-11T17:59:46.062Z,8.80
2019-02-11T18:02:20.835Z,7.72
2019-02-11T18:04:50.746Z,19.13
2019-02-11T18:07:20.158Z,12.13
2019-02-11T18:09:50.284Z,9.73
2019-02-11T18:12:23.305Z,8.87
2019-02-11T18:14:54.354Z,7.47
2019-02-11T18:17:24.729Z,12.85
2019-02-11T18:19:54.297Z,7.58
2019-02-11T18:22:24.963Z,9.53
2019-02-11T18:24:54.557Z,6.93
2019-02-11T18:27:24.165Z,4.40
2019-02-11T18:29:53.503Z,6.47
2019-02-11T18:32:23.272Z,5.43
2019-02-11T18:34:52.681Z,7.37
2019-02-11T18:37:23.112Z,9.15
2019-02-11T18:39:52.852Z,12.23
2019-02-11T18:42:23.205Z,6.30
2019-02-11T18:44:52.989Z,12.00
2019-02-11T18:47:23.625Z,10.70
2019-02-11T18:49:57.213Z,6.67
2019-02-11T18:52:29.229Z,8.83
2019-02-11T18:54:58.751Z,8.10
2019-02-11T18:57:29.003Z,6.77
2019-02-11T18:59:58.740Z,11.17
2019-02-11T19:02:28.397Z,6.60
2019-02-11T19:05:01.965Z,8.00
2019-02-11T19:07:32.767Z,11.48
2019-02-11T19:10:02.283Z,7.72
2019-02-11T19:12:31.666Z,9.53
2019-02-11T19:15:01.196Z,13.72
2019-02-11T19:17:31.732Z,13.10
2019-02-11T19:20:01.289Z,11.35
2019-02-11T19:22:31.051Z,9.53
2019-02-11T19:25:00.475Z,8.37
2019-02-11T19:27:30.926Z,10.07
2019-02-11T19:30:00.605Z,10.83
2019-02-11T19:32:29.993Z,9.47
2019-02-11T19:34:59.493Z,9.63
2019-02-11T19:37:33.048Z,9.40
2019-02-11T19:40:04.421Z,8.13
2019-02-11T19:42:35.484Z,8.73
2019-02-11T19:45:10.099Z,9.80
2019-02-11T19:47:45.554Z,8.27
2019-02-11T19:50:19.003Z,9.50
2019-02-11T19:52:48.609Z,8.37
2019-02-11T19:55:19.671Z,17.13
2019-02-11T19:57:49.243Z,12.47
2019-02-11T20:00:24.540Z,8.35
2019-02-11T20:02:57.114Z,7.97
2019-02-11T20:05:26.772Z,11.20
2019-02-11T20:07:56.323Z,9.95
2019-02-11T20:10:30.018Z,11.97
2019-02-11T20:12:59.389Z,15.50
2019-02-11T20:15:30.644Z,15.88
2019-02-11T20:18:00.095Z,12.37
2019-02-11T20:20:30.807Z,7.50
2019-02-11T20:23:00.785Z,12.90
2019-02-11T20:25:31.269Z,12.70
2019-02-11T20:28:00.688Z,14.47
2019-02-11T20:30:30.100Z,16.62
2019-02-11T20:33:04.507Z,6.13
2019-02-11T20:35:37.151Z,8.65
2019-02-11T20:38:06.698Z,9.93
2019-02-11T20:40:36.241Z,9.50
2019-02-11T20:43:05.721Z,11.20
2019-02-11T20:45:36.076Z,10.45
2019-02-11T20:48:05.841Z,8.87
2019-02-11T20:50:35.253Z,7.85
2019-02-11T20:53:04.963Z,7.43
2019-02-11T20:55:34.386Z,7.22
2019-02-11T20:58:04.066Z,9.03
2019-02-11T21:00:33.645Z,12.23
2019-02-11T21:03:08.528Z,4.10
2019-02-11T21:05:36.173Z,9.25
2019-02-11T21:08:05.548Z,8.10
2019-02-11T21:10:35.298Z,3.80
2019-02-11T21:13:04.701Z,6.13
2019-02-11T21:15:34.139Z,3.57
2019-02-11T21:18:03.643Z,7.30
2019-02-11T21:20:35.685Z,4.70
2019-02-11T21:23:06.915Z,3.35
2019-02-11T21:25:36.914Z,3.40
2019-02-11T21:28:07.905Z,9.75
2019-02-11T21:30:37.530Z,3.17
2019-02-11T21:33:07.728Z,2.67
2019-02-11T21:35:37.097Z,2.77
2019-02-11T21:38:08.117Z,2.83
2019-02-11T21:40:37.930Z,2.40
2019-02-11T21:43:07.308Z,2.90
2019-02-11T21:45:36.710Z,3.27
2019-02-11T21:48:06.751Z,3.20
2019-02-11T21:50:36.256Z,4.40
2019-02-11T21:53:05.560Z,4.60
2019-02-11T21:55:36.166Z,6.20
2019-02-11T21:58:05.534Z,6.70
2019-02-11T22:00:34.909Z,8.58
2019-02-11T22:03:04.904Z,6.93
2019-02-11T22:05:34.665Z,13.08
2019-02-11T22:08:03.973Z,7.90
2019-02-11T22:10:34.501Z,7.03
2019-02-11T22:13:07.072Z,8.77
2019-02-11T22:15:36.589Z,11.93
2019-02-11T22:18:06.320Z,9.63
2019-02-11T22:20:35.845Z,13.27
2019-02-11T22:23:06.051Z,8.40
2019-02-11T22:25:37.137Z,14.43
2019-02-11T22:28:06.558Z,5.57
2019-02-11T22:30:37.649Z,6.10
2019-02-11T22:33:08.269Z,6.00
2019-02-11T22:35:37.683Z,6.27
2019-02-11T22:38:07.068Z,9.03
2019-02-11T22:40:36.813Z,5.50
2019-02-11T22:43:06.836Z,5.67
2019-02-11T22:45:36.312Z,5.20
2019-02-11T22:48:07.568Z,7.10
2019-02-11T22:50:43.109Z,4.83
2019-02-11T22:53:14.625Z,6.80
2019-02-11T22:55:44.450Z,7.30
2019-02-11T22:58:16.701Z,6.93
2019-02-11T23:00:53.749Z,9.83
2019-02-11T23:03:27.790Z,8.50
2019-02-11T23:05:58.532Z,10.82
2019-02-11T23:08:27.935Z,12.27
2019-02-11T23:10:57.650Z,14.20
2019-02-11T23:13:29.096Z,8.40
2019-02-11T23:15:58.485Z,14.17
2019-02-11T23:18:29.250Z,13.50
2019-02-11T23:20:58.665Z,14.30
2019-02-11T23:23:31.749Z,12.75
2019-02-11T23:26:01.472Z,15.55
2019-02-11T23:28:30.862Z,16.73
2019-02-11T23:31:00.323Z,19.53
2019-02-11T23:33:33.757Z,11.67
2019-02-11T23:36:03.190Z,16.77
2019-02-11T23:38:34.713Z,16.57
2019-02-11T23:41:04.598Z,13.22
2019-02-11T23:43:34.072Z,21.27
2019-02-11T23:46:04.223Z,15.07
2019-02-11T23:48:33.600Z,11.60
2019-02-11T23:51:05.868Z,16.80
2019-02-11T23:53:37.053Z,15.55
2019-02-11T23:56:07.449Z,25.60
2019-02-11T23:58:37.036Z,19.37
